createdAt,value
2023-12-09T00:00:28.559Z,100675.15
2023-12-09T00:03:01.289Z,100683.70
2023-12-09T00:04:55.656Z,100676.05
2023-12-09T00:06:50.887Z,100679.11
2023-12-09T00:08:45.067Z,100681.39
2023-12-09T00:10:39.130Z,100685.95
2023-12-09T00:12:33.093Z,100686.72
2023-12-09T00:14:28.266Z,100682.30
2023-12-09T00:16:22.138Z,100683.65
2023-12-09T00:18:18.595Z,100685.17
2023-12-09T00:20:12.851Z,100688.04
2023-12-09T00:22:07.019Z,100684.04
2023-12-09T00:24:01.133Z,100684.13
2023-12-09T00:25:55.283Z,100678.02
2023-12-09T00:27:49.324Z,100674.30
2023-12-09T00:29:45.909Z,100669.02
2023-12-09T00:31:39.060Z,100664.96
2023-12-09T00:33:32.210Z,100658.77
2023-12-09T00:35:25.364Z,100658.18
2023-12-09T00:37:18.517Z,100662.71
2023-12-09T00:39:11.698Z,100662.14
2023-12-09T00:41:05.879Z,100659.20
2023-12-09T00:42:59.000Z,100658.34
2023-12-09T00:44:52.095Z,100652.54
2023-12-09T00:46:45.308Z,100655.14
2023-12-09T00:48:38.452Z,100645.88
2023-12-09T00:50:31.761Z,100649.95
2023-12-09T00:52:25.613Z,100644.30
2023-12-09T00:54:19.854Z,100644.47
2023-12-09T00:56:14.351Z,100647.96
2023-12-09T00:58:07.722Z,100644.08
2023-12-09T01:00:00.966Z,100643.23
2023-12-09T01:01:54.264Z,100643.97
2023-12-09T01:03:47.495Z,100639.49
2023-12-09T01:05:40.789Z,100642.13
2023-12-09T01:07:34.294Z,100643.77
2023-12-09T01:09:27.439Z,100650.69
2023-12-09T01:11:21.467Z,100653.54
2023-12-09T01:13:15.190Z,100649.84
2023-12-09T01:15:08.928Z,100647.36
2023-12-09T01:17:02.723Z,100643.27
2023-12-09T01:18:55.850Z,100645.03
2023-12-09T01:20:49.045Z,100643.37
2023-12-09T01:22:42.080Z,100645.96
2023-12-09T01:24:35.170Z,100650.02
2023-12-09T01:26:28.277Z,100648.89
2023-12-09T01:28:21.447Z,100646.13
2023-12-09T01:30:14.892Z,100639.80
2023-12-09T01:32:08.267Z,100634.98
2023-12-09T01:34:02.456Z,100633.14
2023-12-09T01:35:56.442Z,100632.23
2023-12-09T01:37:49.551Z,100629.11
2023-12-09T01:39:42.705Z,100626.95
2023-12-09T01:41:35.860Z,100628.92
2023-12-09T01:43:29.013Z,100623.35
2023-12-09T01:45:22.188Z,100628.59
2023-12-09T01:47:15.842Z,100628.20
2023-12-09T01:49:09.329Z,100625.86
2023-12-09T01:51:02.813Z,100626.90
2023-12-09T01:52:56.012Z,100625.02
2023-12-09T01:54:49.689Z,100621.64
2023-12-09T01:56:42.823Z,100620.91
2023-12-09T01:58:39.605Z,100617.71
2023-12-09T02:00:33.287Z,100617.56
2023-12-09T02:02:26.966Z,100617.26
2023-12-09T02:04:20.902Z,100620.98
2023-12-09T02:06:14.152Z,100622.21
2023-12-09T02:08:07.271Z,100624.16
2023-12-09T02:10:00.354Z,100624.40
2023-12-09T02:12:12.370Z,100616.98
2023-12-09T02:14:14.276Z,100618.30
2023-12-09T02:16:15.735Z,100626.01
2023-12-09T02:18:09.767Z,100627.25
2023-12-09T02:20:04.797Z,100632.40
2023-12-09T02:22:05.349Z,100628.12
2023-12-09T02:23:58.497Z,100623.16
2023-12-09T02:25:59.716Z,100621.25
2023-12-09T02:27:58.860Z,100616.78
2023-12-09T02:30:00.750Z,100618.64
2023-12-09T02:32:04.398Z,100612.30
2023-12-09T02:33:59.575Z,100611.08
2023-12-09T02:35:56.625Z,100608.88
2023-12-09T02:37:51.092Z,100608.54
2023-12-09T02:39:44.244Z,100610.52
2023-12-09T02:41:37.912Z,100612.80
2023-12-09T02:43:31.789Z,100611.17
2023-12-09T02:45:25.002Z,100610.85
2023-12-09T02:47:18.310Z,100605.70
2023-12-09T02:49:12.492Z,100602.80
2023-12-09T02:51:06.863Z,100603.23
2023-12-09T02:52:59.905Z,100597.91
2023-12-09T02:54:53.175Z,100600.19
2023-12-09T02:56:46.219Z,100600.47
2023-12-09T02:58:39.260Z,100599.42
2023-12-09T03:00:32.256Z,100599.93
2023-12-09T03:02:25.989Z,100602.07
2023-12-09T03:04:27.058Z,100598.10
2023-12-09T03:06:20.183Z,100600.92
2023-12-09T03:08:13.317Z,100599.41
2023-12-09T03:10:07.290Z,100598.95
2023-12-09T03:12:00.489Z,100601.66
2023-12-09T03:13:53.708Z,100597.65
2023-12-09T03:15:46.854Z,100601.06
2023-12-09T03:17:40.281Z,100603.68
2023-12-09T03:19:33.878Z,100599.91
2023-12-09T03:21:27.236Z,100596.84
2023-12-09T03:23:20.386Z,100598.52
2023-12-09T03:25:13.433Z,100599.63
2023-12-09T03:27:06.522Z,100603.13
2023-12-09T03:28:59.738Z,100599.66
2023-12-09T03:30:52.996Z,100603.56
2023-12-09T03:32:46.075Z,100600.66
2023-12-09T03:34:39.279Z,100603.14
2023-12-09T03:36:32.520Z,100596.55
2023-12-09T03:38:25.713Z,100592.65
2023-12-09T03:40:18.775Z,100590.65
2023-12-09T03:42:11.963Z,100594.23
2023-12-09T03:44:05.374Z,100595.33
2023-12-09T03:45:59.653Z,100589.25
2023-12-09T03:47:52.936Z,100589.89
2023-12-09T03:49:46.224Z,100592.42
2023-12-09T03:51:39.432Z,100591.21
2023-12-09T03:53:32.575Z,100593.52
2023-12-09T03:55:25.622Z,100594.22
2023-12-09T03:57:19.204Z,100590.27
2023-12-09T03:59:13.088Z,100590.08
2023-12-09T04:01:06.835Z,100589.92
2023-12-09T04:03:00.319Z,100589.86
2023-12-09T04:04:53.638Z,100589.66
2023-12-09T04:06:46.704Z,100595.16
2023-12-09T04:08:39.843Z,100591.99
2023-12-09T04:10:32.996Z,100592.31
2023-12-09T04:12:26.335Z,100595.06
2023-12-09T04:14:19.624Z,100593.33
2023-12-09T04:16:12.765Z,100592.16
2023-12-09T04:18:07.092Z,100587.59
2023-12-09T04:20:00.653Z,100591.98
2023-12-09T04:21:53.966Z,100593.55
2023-12-09T04:23:47.125Z,100590.88
2023-12-09T04:25:40.270Z,100588.02
2023-12-09T04:27:34.385Z,100590.96
2023-12-09T04:29:27.563Z,100590.30
2023-12-09T04:31:20.755Z,100590.45
2023-12-09T04:33:13.926Z,100594.14
2023-12-09T04:35:07.889Z,100592.67
2023-12-09T04:37:01.749Z,100593.25
2023-12-09T04:38:54.823Z,100595.95
2023-12-09T04:40:48.162Z,100597.13
2023-12-09T04:42:41.602Z,100596.44
2023-12-09T04:44:34.769Z,100590.13
2023-12-09T04:46:28.678Z,100590.23
2023-12-09T04:48:21.913Z,100590.70
2023-12-09T04:50:15.667Z,100593.32
2023-12-09T04:52:08.812Z,100593.44
2023-12-09T04:54:01.982Z,100592.56
2023-12-09T04:55:55.063Z,100588.89
2023-12-09T04:57:48.957Z,100586.52
2023-12-09T04:59:42.042Z,100585.58
2023-12-09T05:01:35.193Z,100586.45
2023-12-09T05:03:28.289Z,100584.46
2023-12-09T05:05:21.621Z,100584.52
2023-12-09T05:07:15.878Z,100581.80
2023-12-09T05:09:10.092Z,100584.80
2023-12-09T05:11:03.316Z,100584.70
2023-12-09T05:12:56.372Z,100586.27
2023-12-09T05:14:50.056Z,100587.70
2023-12-09T05:16:43.139Z,100584.95
2023-12-09T05:18:36.648Z,100586.84
2023-12-09T05:20:31.400Z,100584.92
2023-12-09T05:22:25.169Z,100587.33
2023-12-09T05:24:19.703Z,100583.72
2023-12-09T05:26:23.300Z,100584.00
2023-12-09T05:28:16.641Z,100579.90
2023-12-09T05:30:10.563Z,100587.83
2023-12-09T05:32:04.379Z,100585.10
2023-12-09T05:33:57.616Z,100591.91
2023-12-09T05:35:50.891Z,100590.30
2023-12-09T05:37:43.983Z,100588.22
2023-12-09T05:39:37.375Z,100588.39
2023-12-09T05:41:30.555Z,100587.32
2023-12-09T05:43:23.705Z,100582.76
2023-12-09T05:45:16.839Z,100586.89
2023-12-09T05:47:10.015Z,100587.06
2023-12-09T05:49:03.985Z,100587.73
2023-12-09T05:50:57.159Z,100589.33
2023-12-09T05:52:50.296Z,100594.34
2023-12-09T05:54:43.554Z,100595.06
2023-12-09T05:56:36.801Z,100597.83
2023-12-09T05:58:29.861Z,100598.85
2023-12-09T06:00:23.060Z,100597.02
2023-12-09T06:02:16.055Z,100596.84
2023-12-09T06:04:09.459Z,100595.71
2023-12-09T06:06:03.003Z,100598.65
2023-12-09T06:07:56.243Z,100593.37
2023-12-09T06:09:49.460Z,100587.48
2023-12-09T06:11:42.751Z,100588.59
2023-12-09T06:13:35.998Z,100585.77
2023-12-09T06:15:29.068Z,100585.90
2023-12-09T06:17:22.371Z,100587.34
2023-12-09T06:19:15.767Z,100591.89
2023-12-09T06:21:08.933Z,100591.17
2023-12-09T06:23:02.074Z,100591.34
2023-12-09T06:24:55.440Z,100594.98
2023-12-09T06:26:48.647Z,100595.58
2023-12-09T06:28:41.739Z,100594.63
2023-12-09T06:30:34.950Z,100594.80
2023-12-09T06:32:28.446Z,100599.55
2023-12-09T06:34:21.979Z,100596.53
2023-12-09T06:36:15.379Z,100596.54
2023-12-09T06:38:09.576Z,100595.87
2023-12-09T06:40:02.658Z,100594.88
2023-12-09T06:41:55.802Z,100591.26
2023-12-09T06:43:48.801Z,100588.81
2023-12-09T06:45:42.069Z,100589.56
2023-12-09T06:47:36.494Z,100592.21
2023-12-09T06:49:29.859Z,100594.77
2023-12-09T06:51:23.110Z,100583.14
2023-12-09T06:53:16.514Z,100586.30
2023-12-09T06:55:09.663Z,100581.45
2023-12-09T06:57:02.836Z,100586.10
2023-12-09T06:58:55.922Z,100589.08
2023-12-09T07:00:49.251Z,100586.02
2023-12-09T07:02:52.946Z,100586.77
2023-12-09T07:04:52.328Z,100586.88
2023-12-09T07:06:45.475Z,100580.14
2023-12-09T07:08:38.532Z,100580.81
2023-12-09T07:10:31.587Z,100581.97
2023-12-09T07:12:24.852Z,100579.39
2023-12-09T07:14:19.121Z,100578.25
2023-12-09T07:16:13.692Z,100576.81
2023-12-09T07:18:06.926Z,100579.19
2023-12-09T07:20:01.030Z,100577.42
2023-12-09T07:21:54.190Z,100573.80
2023-12-09T07:23:47.245Z,100571.54
2023-12-09T07:25:40.293Z,100572.06
2023-12-09T07:27:33.662Z,100570.22
2023-12-09T07:29:28.565Z,100572.53
2023-12-09T07:31:22.718Z,100568.34
2023-12-09T07:33:16.180Z,100570.83
2023-12-09T07:35:10.314Z,100566.33
2023-12-09T07:37:03.612Z,100571.70
2023-12-09T07:38:56.783Z,100573.33
2023-12-09T07:40:49.911Z,100570.31
2023-12-09T07:42:42.974Z,100566.56
2023-12-09T07:44:36.119Z,100567.84
2023-12-09T07:46:29.128Z,100564.71
2023-12-09T07:48:22.376Z,100565.42
2023-12-09T07:50:15.691Z,100568.36
2023-12-09T07:52:08.796Z,100564.14
2023-12-09T07:54:01.798Z,100566.13
2023-12-09T07:55:54.884Z,100563.89
2023-12-09T07:57:47.978Z,100560.23
2023-12-09T07:59:41.343Z,100558.52
2023-12-09T08:01:35.360Z,100556.30
2023-12-09T08:03:30.559Z,100556.33
2023-12-09T08:05:25.238Z,100558.02
2023-12-09T08:07:18.354Z,100559.92
2023-12-09T08:09:11.759Z,100560.52
2023-12-09T08:11:05.484Z,100561.52
2023-12-09T08:12:58.736Z,100560.70
2023-12-09T08:14:51.795Z,100561.59
2023-12-09T08:16:44.887Z,100557.22
2023-12-09T08:18:39.225Z,100556.04
2023-12-09T08:20:32.519Z,100555.19
2023-12-09T08:22:25.789Z,100554.71
2023-12-09T08:24:19.117Z,100551.70
2023-12-09T08:26:17.942Z,100549.47
2023-12-09T08:28:11.957Z,100545.68
2023-12-09T08:30:11.864Z,100543.14
2023-12-09T08:32:05.935Z,100542.43
2023-12-09T08:33:59.124Z,100544.80
2023-12-09T08:35:52.446Z,100541.39
2023-12-09T08:37:45.487Z,100543.39
2023-12-09T08:39:41.110Z,100543.24
2023-12-09T08:41:34.256Z,100545.18
2023-12-09T08:43:27.313Z,100543.75
2023-12-09T08:45:20.623Z,100536.62
2023-12-09T08:47:13.823Z,100536.86
2023-12-09T08:49:07.306Z,100534.91
2023-12-09T08:51:00.784Z,100532.21
2023-12-09T08:52:54.645Z,100532.83
2023-12-09T08:54:48.523Z,100535.75
2023-12-09T08:56:42.075Z,100534.95
2023-12-09T08:58:36.013Z,100541.00
2023-12-09T09:00:29.199Z,100545.11
2023-12-09T09:02:22.928Z,100541.45
2023-12-09T09:04:16.086Z,100545.80
2023-12-09T09:06:09.300Z,100542.91
2023-12-09T09:08:02.391Z,100542.77
2023-12-09T09:09:55.441Z,100545.09
2023-12-09T09:11:48.595Z,100542.01
2023-12-09T09:13:41.748Z,100543.11
2023-12-09T09:15:35.047Z,100543.84
2023-12-09T09:17:28.374Z,100544.33
2023-12-09T09:19:22.352Z,100540.95
2023-12-09T09:21:16.670Z,100546.96
2023-12-09T09:23:11.152Z,100542.81
2023-12-09T09:25:04.768Z,100539.57
2023-12-09T09:26:57.849Z,100533.01
2023-12-09T09:28:51.008Z,100531.86
2023-12-09T09:30:44.447Z,100528.38
2023-12-09T09:32:37.714Z,100528.06
2023-12-09T09:34:30.975Z,100524.63
2023-12-09T09:36:24.531Z,100522.77
2023-12-09T09:38:18.379Z,100522.49
2023-12-09T09:40:13.276Z,100519.16
2023-12-09T09:42:17.267Z,100515.52
2023-12-09T09:44:15.340Z,100516.11
2023-12-09T09:46:08.746Z,100507.96
2023-12-09T09:48:07.292Z,100508.64
2023-12-09T09:50:02.488Z,100507.56
2023-12-09T09:51:58.501Z,100503.44
2023-12-09T09:54:01.451Z,100501.91
2023-12-09T09:55:55.620Z,100509.63
2023-12-09T09:57:50.152Z,100508.34
2023-12-09T09:59:43.499Z,100500.14
2023-12-09T10:01:38.919Z,100496.50
2023-12-09T10:03:32.210Z,100496.95
2023-12-09T10:05:25.458Z,100498.12
2023-12-09T10:07:19.938Z,100490.48
2023-12-09T10:09:13.753Z,100489.44
2023-12-09T10:11:06.876Z,100488.01
2023-12-09T10:13:00.186Z,100480.00
2023-12-09T10:14:53.358Z,100473.86
2023-12-09T10:16:46.894Z,100470.13
2023-12-09T10:18:45.988Z,100467.57
2023-12-09T10:20:39.187Z,100465.95
2023-12-09T10:22:32.294Z,100464.82
2023-12-09T10:24:25.371Z,100461.15
2023-12-09T10:26:18.909Z,100457.86
2023-12-09T10:28:12.063Z,100453.47
2023-12-09T10:30:07.070Z,100453.54
2023-12-09T10:32:02.652Z,100451.87
2023-12-09T10:33:56.897Z,100455.61
2023-12-09T10:35:50.815Z,100453.36
2023-12-09T10:37:44.479Z,100450.52
2023-12-09T10:39:37.803Z,100451.03
2023-12-09T10:41:30.992Z,100449.14
2023-12-09T10:43:24.879Z,100449.44
2023-12-09T10:45:18.048Z,100444.08
2023-12-09T10:47:11.171Z,100445.50
2023-12-09T10:49:04.368Z,100442.75
2023-12-09T10:50:57.800Z,100437.22
2023-12-09T10:52:50.930Z,100440.72
2023-12-09T10:54:44.038Z,100435.93
2023-12-09T10:56:37.953Z,100431.62
2023-12-09T10:58:33.327Z,100429.94
2023-12-09T11:00:27.706Z,100432.30
2023-12-09T11:02:22.462Z,100429.95
2023-12-09T11:04:16.429Z,100427.95
2023-12-09T11:06:10.661Z,100429.50
2023-12-09T11:08:04.767Z,100429.23
2023-12-09T11:09:57.915Z,100424.89
2023-12-09T11:11:50.957Z,100426.98
2023-12-09T11:13:47.490Z,100429.37
2023-12-09T11:15:41.115Z,100427.84
2023-12-09T11:17:39.109Z,100425.96
2023-12-09T11:19:33.410Z,100424.48
2023-12-09T11:21:30.622Z,100425.60
2023-12-09T11:23:23.806Z,100423.09
2023-12-09T11:25:20.065Z,100426.77
2023-12-09T11:27:39.554Z,100432.48
2023-12-09T11:29:32.864Z,100433.40
2023-12-09T11:31:36.766Z,100431.84
2023-12-09T11:33:30.197Z,100436.04
2023-12-09T11:35:26.499Z,100433.16
2023-12-09T11:37:20.115Z,100425.58
2023-12-09T11:39:21.833Z,100419.48
2023-12-09T11:41:16.354Z,100416.41
2023-12-09T11:43:10.161Z,100410.47
2023-12-09T11:45:05.241Z,100412.72
2023-12-09T11:46:58.684Z,100412.96
2023-12-09T11:48:52.573Z,100406.14
2023-12-09T11:50:45.806Z,100404.89
2023-12-09T11:52:38.958Z,100400.33
2023-12-09T11:54:32.140Z,100397.63
2023-12-09T11:56:26.211Z,100397.43
2023-12-09T11:58:19.437Z,100397.71
2023-12-09T12:00:13.084Z,100394.36
2023-12-09T12:02:06.510Z,100394.92
2023-12-09T12:04:00.552Z,100391.61
2023-12-09T12:05:53.845Z,100394.42
2023-12-09T12:07:47.411Z,100392.38
2023-12-09T12:09:40.874Z,100390.73
2023-12-09T12:11:35.037Z,100385.06
2023-12-09T12:13:29.659Z,100379.95
2023-12-09T12:15:26.265Z,100381.28
2023-12-09T12:17:19.489Z,100378.29
2023-12-09T12:19:12.694Z,100375.34
2023-12-09T12:21:11.479Z,100372.77
2023-12-09T12:23:08.054Z,100367.70
2023-12-09T12:25:05.599Z,100369.30
2023-12-09T12:26:58.703Z,100368.48
2023-12-09T12:28:53.360Z,100364.99
2023-12-09T12:30:46.551Z,100369.77
2023-12-09T12:32:39.802Z,100370.52
2023-12-09T12:34:33.310Z,100368.19
2023-12-09T12:36:26.618Z,100370.27
2023-12-09T12:38:22.083Z,100369.74
2023-12-09T12:40:15.536Z,100371.63
2023-12-09T12:42:09.958Z,100371.21
2023-12-09T12:44:04.576Z,100368.49
2023-12-09T12:46:00.224Z,100369.70
2023-12-09T12:47:54.399Z,100369.88
2023-12-09T12:49:47.791Z,100365.38
2023-12-09T12:51:41.152Z,100361.28
2023-12-09T12:53:35.081Z,100355.10
2023-12-09T12:55:28.261Z,100353.38
2023-12-09T12:57:24.741Z,100352.65
2023-12-09T12:59:18.441Z,100349.75
2023-12-09T13:01:11.974Z,100348.34
2023-12-09T13:03:08.665Z,100351.00
2023-12-09T13:05:02.138Z,100346.92
2023-12-09T13:06:55.286Z,100337.27
2023-12-09T13:08:48.440Z,100329.66
2023-12-09T13:10:41.861Z,100322.05
2023-12-09T13:12:35.519Z,100318.80
2023-12-09T13:14:28.718Z,100316.08
2023-12-09T13:16:22.336Z,100316.58
2023-12-09T13:18:16.611Z,100317.84
2023-12-09T13:20:11.913Z,100320.79
2023-12-09T13:22:06.915Z,100324.45
2023-12-09T13:24:00.319Z,100321.30
2023-12-09T13:25:54.041Z,100319.14
2023-12-09T13:27:47.717Z,100321.66
2023-12-09T13:29:41.373Z,100314.17
2023-12-09T13:31:34.566Z,100315.86
2023-12-09T13:33:27.772Z,100311.63
2023-12-09T13:35:21.054Z,100311.58
2023-12-09T13:37:14.816Z,100308.96
2023-12-09T13:39:13.118Z,100302.31
2023-12-09T13:41:06.872Z,100301.62
2023-12-09T13:43:00.097Z,100300.86
2023-12-09T13:44:53.256Z,100300.66
2023-12-09T13:46:46.712Z,100294.83
2023-12-09T13:48:39.936Z,100296.90
2023-12-09T13:50:33.614Z,100294.59
2023-12-09T13:52:33.578Z,100291.35
2023-12-09T13:54:27.139Z,100287.25
2023-12-09T13:56:21.565Z,100280.02
2023-12-09T13:58:14.953Z,100282.49
2023-12-09T14:00:09.928Z,100283.31
2023-12-09T14:02:04.370Z,100284.02
2023-12-09T14:03:58.428Z,100283.85
2023-12-09T14:05:53.168Z,100281.20
2023-12-09T14:07:47.373Z,100283.42
2023-12-09T14:09:40.992Z,100284.86
2023-12-09T14:11:34.705Z,100282.52
2023-12-09T14:13:29.436Z,100285.33
2023-12-09T14:15:25.730Z,100283.86
2023-12-09T14:17:20.299Z,100283.85
2023-12-09T14:19:14.009Z,100282.34
2023-12-09T14:21:07.855Z,100286.16
2023-12-09T14:23:31.553Z,100285.70
2023-12-09T14:25:26.943Z,100284.55
2023-12-09T14:27:20.410Z,100278.70
2023-12-09T14:29:14.148Z,100275.11
2023-12-09T14:31:07.725Z,100275.94
2023-12-09T14:33:01.465Z,100276.66
2023-12-09T14:34:55.690Z,100274.52
2023-12-09T14:36:49.486Z,100273.13
2023-12-09T14:38:43.702Z,100270.55
2023-12-09T14:40:36.943Z,100268.98
2023-12-09T14:42:31.736Z,100265.80
2023-12-09T14:44:25.526Z,100264.02
2023-12-09T14:46:18.874Z,100261.77
2023-12-09T14:48:18.309Z,100256.86
2023-12-09T14:50:14.378Z,100254.48
2023-12-09T14:52:08.255Z,100258.36
2023-12-09T14:54:02.242Z,100256.52
2023-12-09T14:55:55.972Z,100256.00
2023-12-09T14:57:49.757Z,100253.87
2023-12-09T14:59:43.317Z,100255.65
2023-12-09T15:01:36.880Z,100253.80
2023-12-09T15:03:30.380Z,100253.64
2023-12-09T15:05:23.804Z,100254.17
2023-12-09T15:07:17.523Z,100254.45
2023-12-09T15:09:11.530Z,100250.31
2023-12-09T15:11:05.312Z,100256.61
2023-12-09T15:12:58.380Z,100258.63
2023-12-09T15:14:52.234Z,100260.73
2023-12-09T15:16:45.829Z,100257.85
2023-12-09T15:18:42.670Z,100255.20
2023-12-09T15:20:35.882Z,100256.43
2023-12-09T15:22:29.286Z,100259.05
2023-12-09T15:24:23.718Z,100258.30
2023-12-09T15:26:20.107Z,100253.80
2023-12-09T15:28:13.414Z,100247.30
2023-12-09T15:30:08.423Z,100245.48
2023-12-09T15:32:01.664Z,100244.02
2023-12-09T15:33:55.108Z,100245.39
2023-12-09T15:35:48.632Z,100244.00
2023-12-09T15:37:43.733Z,100242.06
2023-12-09T15:39:40.702Z,100239.34
2023-12-09T15:41:34.596Z,100240.85
2023-12-09T15:43:27.696Z,100235.15
2023-12-09T15:45:20.857Z,100230.98
2023-12-09T15:47:14.675Z,100229.08
2023-12-09T15:49:08.788Z,100231.95
2023-12-09T15:51:03.288Z,100228.05
2023-12-09T15:52:56.928Z,100225.00
2023-12-09T15:54:50.043Z,100219.07
2023-12-09T15:56:43.406Z,100213.80
2023-12-09T15:58:36.962Z,100216.65
2023-12-09T16:00:30.651Z,100209.58
2023-12-09T16:02:24.069Z,100208.33
2023-12-09T16:04:17.360Z,100205.89
2023-12-09T16:06:10.631Z,100202.70
2023-12-09T16:08:04.168Z,100195.26
2023-12-09T16:09:58.423Z,100196.25
2023-12-09T16:11:51.810Z,100193.55
2023-12-09T16:13:45.055Z,100189.58
2023-12-09T16:15:38.340Z,100191.02
2023-12-09T16:17:31.936Z,100192.54
2023-12-09T16:19:25.207Z,100197.49
2023-12-09T16:21:23.408Z,100193.02
2023-12-09T16:23:17.475Z,100190.35
2023-12-09T16:25:10.737Z,100188.81
2023-12-09T16:27:04.643Z,100189.14
2023-12-09T16:28:57.859Z,100186.63
2023-12-09T16:30:51.191Z,100187.88
2023-12-09T16:32:45.683Z,100186.46
2023-12-09T16:34:45.073Z,100186.66
2023-12-09T16:36:38.148Z,100183.61
2023-12-09T16:38:35.226Z,100180.13
2023-12-09T16:40:35.245Z,100177.80
2023-12-09T16:45:25.230Z,100180.79
2023-12-09T16:47:18.681Z,100176.36
2023-12-09T16:49:11.900Z,100166.23
2023-12-09T16:51:05.223Z,100156.98
2023-12-09T16:52:58.560Z,100150.98
2023-12-09T16:54:51.763Z,100148.56
2023-12-09T16:56:45.154Z,100147.83
2023-12-09T16:58:38.724Z,100138.73
2023-12-09T17:00:31.997Z,100133.27
2023-12-09T17:02:27.678Z,100129.08
2023-12-09T17:04:21.175Z,100122.06
2023-12-09T17:06:14.910Z,100115.77
2023-12-09T17:08:08.123Z,100108.19
2023-12-09T17:10:01.328Z,100110.02
2023-12-09T17:11:54.734Z,100111.98
2023-12-09T17:13:47.944Z,100112.73
2023-12-09T17:15:41.105Z,100116.55
2023-12-09T17:17:34.636Z,100119.63
2023-12-09T17:19:28.205Z,100118.26
2023-12-09T17:21:21.831Z,100110.51
2023-12-09T17:23:17.372Z,100104.23
2023-12-09T17:25:13.033Z,100102.96
2023-12-09T17:27:11.941Z,100101.50
2023-12-09T17:29:07.953Z,100098.51
2023-12-09T17:31:02.505Z,100090.64
2023-12-09T17:32:55.980Z,100090.66
2023-12-09T17:34:49.340Z,100081.44
2023-12-09T17:36:42.760Z,100076.55
2023-12-09T17:38:35.985Z,100075.34
2023-12-09T17:40:30.106Z,100066.20
2023-12-09T17:42:42.823Z,100063.51
2023-12-09T17:44:59.183Z,100058.16
2023-12-09T17:46:54.052Z,100048.38
2023-12-09T17:48:49.339Z,100046.05
2023-12-09T17:50:42.560Z,100039.39
2023-12-09T17:52:37.643Z,100035.45
2023-12-09T17:54:31.805Z,100029.63
2023-12-09T17:56:25.042Z,100018.96
2023-12-09T17:58:18.139Z,100020.00
2023-12-09T18:00:14.451Z,100016.95
2023-12-09T18:02:09.167Z,100015.71
2023-12-09T18:04:02.407Z,100017.23
2023-12-09T18:05:56.075Z,100014.58
2023-12-09T18:07:49.342Z,100010.92
2023-12-09T18:09:45.322Z,100013.46
2023-12-09T18:11:38.640Z,100016.80
2023-12-09T18:13:31.718Z,100012.36
2023-12-09T18:15:24.938Z,100007.90
2023-12-09T18:17:18.734Z,100007.84
2023-12-09T18:19:11.942Z,100006.29
2023-12-09T18:21:05.352Z,100004.35
2023-12-09T18:23:04.270Z,100003.88
2023-12-09T18:25:03.765Z,100003.66
2023-12-09T18:26:59.935Z,100000.78
2023-12-09T18:28:57.410Z,99999.00
2023-12-09T18:30:53.723Z,99998.59
2023-12-09T18:32:50.588Z,99998.88
2023-12-09T18:34:46.008Z,99995.98
2023-12-09T18:36:42.074Z,99993.20
2023-12-09T18:38:36.735Z,99988.29
2023-12-09T18:40:29.898Z,99983.99
2023-12-09T18:42:23.070Z,99978.27
2023-12-09T18:44:21.670Z,99972.87
2023-12-09T18:46:18.596Z,99968.65
2023-12-09T18:48:15.063Z,99968.58
2023-12-09T18:50:10.976Z,99964.98
2023-12-09T18:52:06.755Z,99956.65
2023-12-09T18:54:02.878Z,99956.33
2023-12-09T18:55:58.062Z,99953.13
2023-12-09T18:57:53.573Z,99943.71
2023-12-09T18:59:48.823Z,99940.73
2023-12-09T19:01:43.420Z,99937.89
2023-12-09T19:03:39.890Z,99937.38
2023-12-09T19:05:35.569Z,99930.61
2023-12-09T19:07:30.600Z,99922.83
2023-12-09T19:09:27.216Z,99920.48
2023-12-09T19:11:22.535Z,99918.89
2023-12-09T19:13:17.686Z,99918.79
2023-12-09T19:15:13.334Z,99915.20
2023-12-09T19:17:08.700Z,99910.00
2023-12-09T19:19:04.019Z,99909.56
2023-12-09T19:20:58.957Z,99909.02
2023-12-09T19:22:53.802Z,99903.17
2023-12-09T19:24:49.526Z,99898.16
2023-12-09T19:26:45.799Z,99893.53
2023-12-09T19:28:41.350Z,99894.15
2023-12-09T19:30:36.313Z,99893.82
2023-12-09T19:32:31.265Z,99893.35
2023-12-09T19:34:26.657Z,99891.88
2023-12-09T19:36:21.738Z,99890.48
2023-12-09T19:38:17.304Z,99884.34
2023-12-09T19:40:12.979Z,99886.15
2023-12-09T19:42:08.101Z,99885.14
2023-12-09T19:44:01.264Z,99886.91
2023-12-09T19:45:54.528Z,99886.80
2023-12-09T19:47:47.679Z,99884.67
2023-12-09T19:49:42.514Z,99880.89
2023-12-09T19:51:35.744Z,99882.63
2023-12-09T19:53:29.360Z,99880.59
2023-12-09T19:55:22.595Z,99879.27
2023-12-09T19:57:17.239Z,99885.23
2023-12-09T19:59:10.300Z,99877.56
2023-12-09T20:01:03.634Z,99876.15
2023-12-09T20:02:56.956Z,99867.31
2023-12-09T20:04:50.331Z,99872.86
2023-12-09T20:06:44.946Z,99874.94
2023-12-09T20:08:39.314Z,99875.98
2023-12-09T20:10:32.906Z,99872.16
2023-12-09T20:12:26.970Z,99861.56
2023-12-09T20:14:20.206Z,99856.83
2023-12-09T20:16:13.668Z,99851.40
2023-12-09T20:18:07.322Z,99843.66
2023-12-09T20:20:00.940Z,99846.27
2023-12-09T20:21:54.276Z,99843.92
2023-12-09T20:23:48.070Z,99836.48
2023-12-09T20:25:42.414Z,99826.34
2023-12-09T20:27:36.857Z,99818.55
2023-12-09T20:29:30.452Z,99814.16
2023-12-09T20:31:24.477Z,99814.79
2023-12-09T20:33:18.838Z,99812.38
2023-12-09T20:35:12.737Z,99812.05
2023-12-09T20:37:06.960Z,99811.97
2023-12-09T20:39:01.030Z,99812.17
2023-12-09T20:40:54.189Z,99804.45
2023-12-09T20:42:48.327Z,99797.23
2023-12-09T20:44:42.785Z,99794.73
2023-12-09T20:46:36.115Z,99791.09
2023-12-09T20:48:29.758Z,99785.26
2023-12-09T20:50:24.381Z,99780.34
2023-12-09T20:52:18.220Z,99777.05
2023-12-09T20:54:12.787Z,99768.75
2023-12-09T20:56:09.386Z,99759.83
2023-12-09T20:58:04.789Z,99748.70
2023-12-09T20:59:58.853Z,99740.00
2023-12-09T21:01:56.319Z,99734.69
2023-12-09T21:03:51.727Z,99731.73
2023-12-09T21:05:46.108Z,99728.05
2023-12-09T21:07:40.691Z,99724.71
2023-12-09T21:09:34.927Z,99719.33
2023-12-09T21:11:29.956Z,99721.38
2023-12-09T21:13:25.069Z,99721.55
2023-12-09T21:15:21.373Z,99726.48
2023-12-09T21:17:15.568Z,99724.92
2023-12-09T21:19:11.356Z,99723.29
2023-12-09T21:21:06.034Z,99726.27
2023-12-09T21:23:01.126Z,99724.70
2023-12-09T21:24:56.109Z,99726.45
2023-12-09T21:26:49.778Z,99729.23
2023-12-09T21:28:43.564Z,99716.17
2023-12-09T21:30:37.738Z,99713.02
2023-12-09T21:32:31.860Z,99707.54
2023-12-09T21:34:25.930Z,99708.30
2023-12-09T21:36:19.866Z,99706.32
2023-12-09T21:38:14.497Z,99701.66
2023-12-09T21:40:09.141Z,99695.38
2023-12-09T21:42:02.482Z,99696.25
2023-12-09T21:43:55.663Z,99691.94
2023-12-09T21:45:50.679Z,99689.11
2023-12-09T21:47:44.398Z,99688.95
2023-12-09T21:49:44.557Z,99683.78
2023-12-09T21:51:42.787Z,99684.83
2023-12-09T21:53:37.885Z,99688.04